createdAt,value
2023-05-02T00:01:07.088Z,959.4357
2023-05-02T00:02:07.750Z,959.4244
2023-05-02T00:03:07.878Z,959.4185
2023-05-02T00:04:08.244Z,959.4130
2023-05-02T00:06:08.786Z,959.4055
2023-05-02T00:10:11.966Z,959.3871
2023-05-02T00:11:12.571Z,959.3727
2023-05-02T00:12:13.206Z,959.3680
2023-05-02T00:14:13.001Z,959.3541
2023-05-02T00:15:14.543Z,959.3481
2023-05-02T00:18:16.146Z,959.3349
2023-05-02T00:19:17.969Z,959.3338
2023-05-02T00:20:18.667Z,959.3281
2023-05-02T00:23:20.368Z,959.3062
2023-05-02T00:24:21.569Z,959.2934
2023-05-02T00:26:22.552Z,959.2734
2023-05-02T00:27:23.255Z,959.2712
2023-05-02T00:28:24.052Z,959.2600
2023-05-02T00:29:24.820Z,959.2551
2023-05-02T00:30:25.774Z,959.2449
2023-05-02T00:31:26.239Z,959.2310
2023-05-02T00:32:26.357Z,959.2185
2023-05-02T00:33:28.176Z,959.2064
2023-05-02T00:34:28.697Z,959.1948
2023-05-02T00:35:29.015Z,959.1868
2023-05-02T00:36:29.556Z,959.1795
2023-05-02T00:37:30.268Z,959.1766
2023-05-02T00:38:30.582Z,959.1707
2023-05-02T00:39:30.651Z,959.1597
2023-05-02T00:40:31.065Z,959.1563
2023-05-02T00:41:33.393Z,959.1569
2023-05-02T00:48:39.331Z,959.1675
2023-05-02T00:49:40.293Z,959.1710
2023-05-02T00:50:41.221Z,959.1744
2023-05-02T00:51:41.487Z,959.1712
2023-05-02T00:52:41.719Z,959.1575
2023-05-02T00:53:43.333Z,959.1476
2023-05-02T00:54:44.444Z,959.1278
2023-05-02T00:55:45.986Z,959.1110
2023-05-02T00:56:46.413Z,959.1061
2023-05-02T00:59:48.502Z,959.0909
2023-05-02T01:00:49.697Z,959.0849
2023-05-02T01:01:50.073Z,959.0934
2023-05-02T01:04:53.426Z,959.0966
2023-05-02T01:05:54.696Z,959.0974
2023-05-02T01:06:55.242Z,959.0961
2023-05-02T01:07:55.453Z,959.1036
2023-05-02T01:08:55.953Z,959.1100
2023-05-02T01:09:57.382Z,959.1166
2023-05-02T01:10:58.428Z,959.1269
2023-05-02T01:11:58.872Z,959.1366
2023-05-02T01:12:58.930Z,959.1525
2023-05-02T01:14:00.051Z,959.1508
2023-05-02T01:15:00.100Z,959.1573
2023-05-02T01:16:00.999Z,959.1629
2023-05-02T01:17:03.263Z,959.1678
2023-05-02T01:18:04.347Z,959.1741
2023-05-02T01:19:04.767Z,959.1754
2023-05-02T01:20:06.136Z,959.1743
2023-05-02T01:23:08.882Z,959.1855
2023-05-02T01:28:10.662Z,959.2356
2023-05-02T01:29:11.026Z,959.2498
2023-05-02T01:30:12.871Z,959.2557
2023-05-02T01:32:12.885Z,959.2644
2023-05-02T01:33:14.594Z,959.2648
2023-05-02T01:34:15.209Z,959.2695
2023-05-02T01:35:15.437Z,959.2637
2023-05-02T01:36:16.771Z,959.2629
2023-05-02T01:37:17.601Z,959.2655
2023-05-02T01:38:18.600Z,959.2751
2023-05-02T01:39:19.665Z,959.2859
2023-05-02T01:40:20.752Z,959.2955
2023-05-02T01:41:21.058Z,959.3083
2023-05-02T01:42:23.054Z,959.3093
2023-05-02T01:43:24.116Z,959.3081
2023-05-02T01:44:25.458Z,959.2986
2023-05-02T01:53:40.722Z,959.2971
2023-05-02T01:54:40.725Z,959.2985
2023-05-02T01:55:42.320Z,959.2950
2023-05-02T01:56:43.009Z,959.2983
2023-05-02T01:57:43.003Z,959.3007
2023-05-02T01:58:43.858Z,959.2988
2023-05-02T01:59:45.305Z,959.2985
2023-05-02T02:00:46.724Z,959.2951
2023-05-02T02:01:47.097Z,959.3012
2023-05-02T02:09:58.669Z,959.3614
2023-05-02T02:10:59.668Z,959.3680
2023-05-02T02:12:01.098Z,959.3781
2023-05-02T02:13:02.648Z,959.3888
2023-05-02T02:16:05.020Z,959.4276
2023-05-02T02:17:05.446Z,959.4456
2023-05-02T02:18:05.500Z,959.4590
2023-05-02T02:19:06.204Z,959.4722
2023-05-02T02:20:06.965Z,959.4831
2023-05-02T02:21:07.532Z,959.4865
2023-05-02T02:22:08.128Z,959.4965
2023-05-02T02:23:08.715Z,959.5022
2023-05-02T02:24:09.335Z,959.4962
2023-05-02T02:25:09.831Z,959.4987
2023-05-02T02:26:10.436Z,959.4933
2023-05-02T02:27:10.981Z,959.4875
2023-05-02T02:28:11.444Z,959.4907
2023-05-02T02:29:11.952Z,959.4920
2023-05-02T02:30:12.457Z,959.4944
2023-05-02T02:31:13.349Z,959.5062
2023-05-02T02:32:14.153Z,959.5265
2023-05-02T02:33:14.903Z,959.5342
2023-05-02T02:34:15.631Z,959.5404
2023-05-02T02:35:16.209Z,959.5398
2023-05-02T02:36:16.631Z,959.5385
2023-05-02T02:37:17.357Z,959.5398
2023-05-02T02:38:17.980Z,959.5471
2023-05-02T02:39:18.464Z,959.5529
2023-05-02T02:40:19.156Z,959.5604
2023-05-02T02:41:19.584Z,959.5671
2023-05-02T02:42:20.172Z,959.5689
2023-05-02T02:43:20.780Z,959.5731
2023-05-02T02:44:20.845Z,959.5746
2023-05-02T02:45:22.391Z,959.5780
2023-05-02T02:47:23.304Z,959.5765
2023-05-02T02:48:23.652Z,959.5766
2023-05-02T02:49:24.200Z,959.5749
2023-05-02T02:50:24.518Z,959.5749
2023-05-02T02:51:25.107Z,959.5753
2023-05-02T02:52:25.443Z,959.5631
2023-05-02T02:53:25.558Z,959.5507
2023-05-02T02:54:30.136Z,959.5446
2023-05-02T02:55:30.545Z,959.5489
2023-05-02T02:56:30.925Z,959.5576
2023-05-02T02:57:31.417Z,959.5660
2023-05-02T02:58:31.922Z,959.5867
2023-05-02T02:59:32.215Z,959.6096
2023-05-02T03:00:32.633Z,959.6207
2023-05-02T03:01:33.231Z,959.6342
2023-05-02T03:02:33.768Z,959.6331
2023-05-02T03:03:35.018Z,959.6438
2023-05-02T03:04:35.653Z,959.6447
2023-05-02T03:05:36.197Z,959.6496
2023-05-02T03:06:37.030Z,959.6526
2023-05-02T03:07:37.739Z,959.6538
2023-05-02T03:08:38.277Z,959.6644
2023-05-02T03:09:38.801Z,959.6740
2023-05-02T03:10:39.112Z,959.6869
2023-05-02T03:11:39.611Z,959.6989
2023-05-02T03:12:40.448Z,959.7084
2023-05-02T03:13:41.335Z,959.7116
2023-05-02T03:14:42.106Z,959.7170
2023-05-02T03:15:42.537Z,959.7155
2023-05-02T03:16:43.512Z,959.7076
2023-05-02T03:17:44.331Z,959.6998
2023-05-02T03:18:45.964Z,959.6956
2023-05-02T03:19:46.263Z,959.6891
2023-05-02T03:20:46.850Z,959.6957
2023-05-02T03:21:47.592Z,959.6940
2023-05-02T03:22:48.559Z,959.7003
2023-05-02T03:23:49.089Z,959.7145
2023-05-02T03:24:49.609Z,959.7269
2023-05-02T03:25:51.466Z,959.7380
2023-05-02T03:27:51.123Z,959.7578
2023-05-02T03:28:51.695Z,959.7609
2023-05-02T03:29:52.194Z,959.7571
2023-05-02T03:30:52.463Z,959.7578
2023-05-02T03:31:53.252Z,959.7641
2023-05-02T03:32:54.439Z,959.7715
2023-05-02T03:33:55.195Z,959.7860
2023-05-02T03:34:55.690Z,959.8011
2023-05-02T03:35:56.140Z,959.8065
2023-05-02T03:36:56.640Z,959.8158
2023-05-02T03:37:57.158Z,959.8198
2023-05-02T03:38:57.523Z,959.8238
2023-05-02T03:39:58.216Z,959.8276
2023-05-02T03:40:58.253Z,959.8337
2023-05-02T03:41:58.707Z,959.8322
2023-05-02T03:42:59.150Z,959.8451
2023-05-02T03:43:59.566Z,959.8522
2023-05-02T03:45:00.210Z,959.8651
2023-05-02T03:46:01.380Z,959.8723
2023-05-02T03:47:02.243Z,959.8765
2023-05-02T03:48:03.352Z,959.8776
2023-05-02T03:49:04.032Z,959.8776
2023-05-02T03:50:04.377Z,959.8789
2023-05-02T03:51:04.930Z,959.8820
2023-05-02T03:52:05.598Z,959.8813
2023-05-02T03:53:06.814Z,959.8829
2023-05-02T03:54:07.365Z,959.8909
2023-05-02T03:55:08.033Z,959.8904
2023-05-02T03:56:08.390Z,959.8927
2023-05-02T03:57:09.167Z,959.8987
2023-05-02T03:58:09.568Z,959.9038
2023-05-02T03:59:10.396Z,959.9135
2023-05-02T04:00:11.302Z,959.9240
2023-05-02T04:01:11.843Z,959.9342
2023-05-02T04:02:12.370Z,959.9491
2023-05-02T04:03:12.573Z,959.9570
2023-05-02T04:04:13.349Z,959.9686
2023-05-02T04:05:13.825Z,959.9752
2023-05-02T04:06:14.955Z,959.9791
2023-05-02T04:07:15.484Z,959.9818
2023-05-02T04:08:16.014Z,959.9831
2023-05-02T04:09:16.684Z,959.9860
2023-05-02T04:10:17.772Z,959.9866
2023-05-02T04:11:18.410Z,959.9922
2023-05-02T04:12:18.945Z,960.0020
2023-05-02T04:13:19.293Z,960.0122
2023-05-02T04:14:20.025Z,960.0218
2023-05-02T04:15:20.440Z,960.0369
2023-05-02T04:16:21.228Z,960.0422
2023-05-02T04:17:21.301Z,960.0575
2023-05-02T04:18:22.139Z,960.0698
2023-05-02T04:19:22.699Z,960.0873
2023-05-02T04:20:23.225Z,960.1055
2023-05-02T04:21:23.785Z,960.1273
2023-05-02T04:22:24.430Z,960.1422
2023-05-02T04:23:24.690Z,960.1536
2023-05-02T04:24:25.289Z,960.1629
2023-05-02T04:25:25.726Z,960.1696
2023-05-02T04:26:26.216Z,960.1693
2023-05-02T04:27:26.367Z,960.1655
2023-05-02T04:28:26.884Z,960.1582
2023-05-02T04:29:27.525Z,960.1507
2023-05-02T04:30:28.464Z,960.1478
2023-05-02T04:31:29.119Z,960.1451
2023-05-02T04:32:29.922Z,960.1494
2023-05-02T04:33:30.813Z,960.1578
2023-05-02T04:34:31.210Z,960.1702
2023-05-02T04:35:31.888Z,960.1807
2023-05-02T04:36:32.391Z,960.1938
2023-05-02T04:37:32.600Z,960.1968
2023-05-02T04:38:33.145Z,960.1980
2023-05-02T04:39:33.626Z,960.2027
2023-05-02T04:40:34.134Z,960.2015
2023-05-02T04:41:34.844Z,960.2102
2023-05-02T04:42:35.237Z,960.2126
2023-05-02T04:43:35.671Z,960.2205
2023-05-02T04:44:36.511Z,960.2307
2023-05-02T04:45:37.186Z,960.2371
2023-05-02T04:46:38.313Z,960.2493
2023-05-02T04:47:38.949Z,960.2531
2023-05-02T04:48:39.908Z,960.2589
2023-05-02T04:49:40.877Z,960.2556
2023-05-02T04:50:42.156Z,960.2549
2023-05-02T04:51:42.968Z,960.2573
2023-05-02T04:52:43.576Z,960.2567
2023-05-02T04:53:43.920Z,960.2576
2023-05-02T04:54:44.591Z,960.2569
2023-05-02T04:55:44.948Z,960.2569
2023-05-02T04:56:45.565Z,960.2625
2023-05-02T04:57:46.820Z,960.2728
2023-05-02T04:58:47.317Z,960.2885
2023-05-02T04:59:47.971Z,960.2997
2023-05-02T05:00:48.571Z,960.3138
2023-05-02T05:01:49.336Z,960.3269
2023-05-02T05:02:50.978Z,960.3560
2023-05-02T05:03:51.075Z,960.4023
2023-05-02T05:04:51.679Z,960.4457
2023-05-02T05:05:51.952Z,960.4830
2023-05-02T05:06:53.125Z,960.5320
2023-05-02T05:07:53.816Z,960.5791
2023-05-02T05:08:54.482Z,960.6249
2023-05-02T05:09:55.980Z,960.6595
2023-05-02T05:10:57.005Z,960.6854
2023-05-02T05:11:57.691Z,960.7025
2023-05-02T05:12:58.149Z,960.7140
2023-05-02T05:13:58.874Z,960.7244
2023-05-02T05:14:59.354Z,960.7358
2023-05-02T05:16:00.255Z,960.7466
2023-05-02T05:17:00.423Z,960.7559
2023-05-02T05:18:01.003Z,960.7731
2023-05-02T05:19:01.340Z,960.7909
2023-05-02T05:20:02.276Z,960.8087
2023-05-02T05:21:02.857Z,960.8378
2023-05-02T05:23:04.324Z,960.8831
2023-05-02T05:24:04.822Z,960.9011
2023-05-02T05:25:05.699Z,960.9142
2023-05-02T05:26:06.544Z,960.9333
2023-05-02T05:27:07.396Z,960.9525
2023-05-02T05:28:08.083Z,960.9702
2023-05-02T05:29:08.776Z,960.9842
2023-05-02T05:30:09.729Z,961.0098
2023-05-02T05:31:10.599Z,961.0247
2023-05-02T05:32:11.668Z,961.0444
2023-05-02T05:33:12.393Z,961.0637
2023-05-02T05:34:12.814Z,961.0834
2023-05-02T05:35:13.551Z,961.1058
2023-05-02T05:36:14.774Z,961.1220
2023-05-02T05:37:15.363Z,961.1414
2023-05-02T05:38:15.907Z,961.1613
2023-05-02T05:39:16.665Z,961.1766
2023-05-02T05:40:17.581Z,961.1887
2023-05-02T05:41:18.292Z,961.2084
2023-05-02T05:42:19.053Z,961.2275
2023-05-02T05:43:20.089Z,961.2458
2023-05-02T05:44:20.576Z,961.2669
2023-05-02T05:45:21.507Z,961.2791
2023-05-02T05:46:23.146Z,961.2791
2023-05-02T05:47:24.179Z,961.2840
2023-05-02T05:48:25.318Z,961.2922
2023-05-02T05:49:26.124Z,961.2947
2023-05-02T05:50:26.754Z,961.3019
2023-05-02T05:51:27.699Z,961.3018
2023-05-02T05:52:28.406Z,961.3040
2023-05-02T05:53:29.437Z,961.3071
2023-05-02T05:54:30.369Z,961.3078
2023-05-02T05:55:31.087Z,961.3180
2023-05-02T05:56:31.939Z,961.3218
2023-05-02T05:57:32.654Z,961.3260
2023-05-02T05:58:33.381Z,961.3234
2023-05-02T05:59:34.355Z,961.3200
2023-05-02T06:00:35.794Z,961.3153
2023-05-02T06:01:36.605Z,961.3167
2023-05-02T06:02:36.757Z,961.3157
2023-05-02T06:03:37.296Z,961.3156
2023-05-02T06:04:37.576Z,961.3107
2023-05-02T06:05:38.139Z,961.3160
2023-05-02T06:06:39.065Z,961.3131
2023-05-02T06:07:39.947Z,961.3102
2023-05-02T06:08:40.459Z,961.3031
2023-05-02T06:09:41.297Z,961.2980
2023-05-02T06:10:42.549Z,961.2973
2023-05-02T06:11:43.163Z,961.2949
2023-05-02T06:12:45.209Z,961.3080
2023-05-02T06:13:45.256Z,961.3216
2023-05-02T06:14:45.698Z,961.3414
2023-05-02T06:15:46.295Z,961.3597
2023-05-02T06:16:47.197Z,961.3731
2023-05-02T06:17:48.071Z,961.3978
2023-05-02T06:18:48.926Z,961.4149
2023-05-02T06:19:49.497Z,961.4347
2023-05-02T06:20:49.867Z,961.4496
2023-05-02T06:21:50.683Z,961.4573
2023-05-02T06:22:51.127Z,961.4651
2023-05-02T06:23:51.946Z,961.4735
2023-05-02T06:24:52.526Z,961.4802
2023-05-02T06:25:53.033Z,961.4909
2023-05-02T06:26:53.743Z,961.4998
2023-05-02T06:27:54.297Z,961.5018
2023-05-02T06:28:54.896Z,961.5089
2023-05-02T06:29:55.670Z,961.5125
2023-05-02T06:30:56.111Z,961.5193
2023-05-02T06:31:57.171Z,961.5291
2023-05-02T06:32:57.998Z,961.5382
2023-05-02T06:33:58.762Z,961.5411
2023-05-02T06:34:59.503Z,961.5451
2023-05-02T06:36:01.834Z,961.5451
2023-05-02T06:37:00.392Z,961.5479
2023-05-02T06:38:01.067Z,961.5522
2023-05-02T06:39:01.676Z,961.5558
2023-05-02T06:40:03.288Z,961.5631
2023-05-02T06:41:04.238Z,961.5698
2023-05-02T06:42:04.521Z,961.5786
2023-05-02T06:43:05.403Z,961.5880
2023-05-02T06:44:06.067Z,961.6016
2023-05-02T06:45:06.750Z,961.6069
2023-05-02T06:46:07.472Z,961.6166
2023-05-02T06:47:08.174Z,961.6204
2023-05-02T06:48:08.476Z,961.6300
2023-05-02T06:49:09.323Z,961.6526
2023-05-02T06:50:10.527Z,961.6675
2023-05-02T06:51:11.270Z,961.6729
2023-05-02T06:52:12.053Z,961.6844
2023-05-02T06:53:12.657Z,961.6940
2023-05-02T06:54:13.645Z,961.6978
2023-05-02T06:55:14.383Z,961.7086
2023-05-02T06:56:15.016Z,961.7189
2023-05-02T06:57:15.782Z,961.7302
2023-05-02T06:58:16.264Z,961.7342
2023-05-02T06:59:16.965Z,961.7324
2023-05-02T07:00:17.871Z,961.7396
2023-05-02T07:01:18.953Z,961.7466
2023-05-02T07:02:19.571Z,961.7537
2023-05-02T07:03:20.679Z,961.7584
2023-05-02T07:04:21.361Z,961.7567
2023-05-02T07:05:22.068Z,961.7509
2023-05-02T07:06:22.698Z,961.7584
2023-05-02T07:07:23.315Z,961.7673
2023-05-02T07:08:23.891Z,961.7729
2023-05-02T07:09:24.390Z,961.7880
2023-05-02T07:10:25.710Z,961.7935
2023-05-02T07:11:26.374Z,961.8009
2023-05-02T07:12:27.556Z,961.8178
2023-05-02T07:13:28.502Z,961.8314
2023-05-02T07:14:29.056Z,961.8440
2023-05-02T07:15:29.466Z,961.8562
2023-05-02T07:16:30.428Z,961.8655
2023-05-02T07:17:31.278Z,961.8684
2023-05-02T07:18:32.279Z,961.8751
2023-05-02T07:19:32.899Z,961.8778
2023-05-02T07:20:33.948Z,961.8847
2023-05-02T07:21:34.629Z,961.8820
2023-05-02T07:22:35.273Z,961.8742
2023-05-02T07:23:35.706Z,961.8696
2023-05-02T07:24:36.393Z,961.8745
2023-05-02T07:25:37.238Z,961.8776
2023-05-02T07:26:37.998Z,961.8780
2023-05-02T07:27:38.576Z,961.8784
2023-05-02T07:28:39.195Z,961.8753
2023-05-02T07:29:39.896Z,961.8747
2023-05-02T07:30:40.543Z,961.8758
2023-05-02T07:31:41.119Z,961.8827
2023-05-02T07:32:42.016Z,961.8720
2023-05-02T07:33:42.967Z,961.8698
2023-05-02T07:34:43.610Z,961.8558
2023-05-02T07:35:44.261Z,961.8478
2023-05-02T07:36:44.616Z,961.8449
2023-05-02T07:37:45.219Z,961.8351
2023-05-02T07:38:45.806Z,961.8449
2023-05-02T07:39:46.246Z,961.8517
2023-05-02T07:40:46.890Z,961.8447
2023-05-02T07:41:47.482Z,961.8409
2023-05-02T07:42:47.985Z,961.8427
2023-05-02T07:43:48.710Z,961.8342
2023-05-02T07:44:49.178Z,961.8209
2023-05-02T07:45:50.150Z,961.8289
2023-05-02T07:46:50.276Z,961.8225
2023-05-02T07:47:50.659Z,961.8331
2023-05-02T07:48:51.588Z,961.8374
2023-05-02T07:49:52.330Z,961.8296
2023-05-02T07:50:52.535Z,961.8198
2023-05-02T07:51:53.265Z,961.8209
2023-05-02T07:52:53.812Z,961.8249
2023-05-02T07:53:54.225Z,961.8340
2023-05-02T07:54:54.900Z,961.8571
2023-05-02T07:55:55.296Z,961.8593
2023-05-02T07:56:55.821Z,961.8624
2023-05-02T07:57:56.472Z,961.8682
2023-05-02T07:58:56.895Z,961.8738
2023-05-02T07:59:57.693Z,961.8713
2023-05-02T08:00:58.092Z,961.8661
2023-05-02T08:01:58.684Z,961.8680
2023-05-02T08:02:59.985Z,961.8762
2023-05-02T08:04:00.656Z,961.8841
2023-05-02T08:05:01.479Z,961.8966
2023-05-02T08:06:01.616Z,961.9082
2023-05-02T08:07:02.450Z,961.9149
2023-05-02T08:08:03.256Z,961.9117
2023-05-02T08:09:03.702Z,961.9182
2023-05-02T08:10:04.557Z,961.9075
2023-05-02T08:11:04.433Z,961.9168
2023-05-02T08:12:05.369Z,961.9297
2023-05-02T08:13:06.111Z,961.9400
2023-05-02T08:14:06.858Z,961.9595
2023-05-02T08:15:07.342Z,961.9678
2023-05-02T08:16:08.426Z,961.9678
2023-05-02T08:17:08.751Z,961.9697
2023-05-02T08:18:09.497Z,961.9667
2023-05-02T08:19:10.342Z,961.9656
2023-05-02T08:20:10.403Z,961.9700
2023-05-02T08:21:11.092Z,961.9675
2023-05-02T08:22:12.040Z,961.9684
2023-05-02T08:23:12.642Z,961.9733
2023-05-02T08:24:14.329Z,961.9702
2023-05-02T08:25:15.072Z,961.9704
2023-05-02T08:26:15.731Z,961.9758
2023-05-02T08:27:16.498Z,961.9784
2023-05-02T08:28:17.299Z,961.9860
2023-05-02T08:29:17.870Z,961.9882
2023-05-02T08:30:18.828Z,961.9811
2023-05-02T08:31:19.667Z,961.9853
2023-05-02T08:32:20.872Z,961.9942
2023-05-02T08:33:21.947Z,961.9978
2023-05-02T08:34:22.707Z,961.9996
2023-05-02T08:35:23.324Z,962.0073
2023-05-02T08:36:24.253Z,962.0172
2023-05-02T08:37:24.656Z,962.0231
2023-05-02T08:38:25.266Z,962.0267
2023-05-02T08:39:26.007Z,962.0249
2023-05-02T08:40:38.199Z,962.0283
2023-05-02T08:41:27.210Z,962.0358
2023-05-02T08:42:27.618Z,962.0477
2023-05-02T08:43:28.279Z,962.0509
2023-05-02T08:44:29.000Z,962.0571
2023-05-02T08:45:30.035Z,962.0623
2023-05-02T08:46:31.133Z,962.0745
2023-05-02T08:47:32.110Z,962.0856
2023-05-02T08:48:32.182Z,962.0980
2023-05-02T08:49:32.692Z,962.0953
2023-05-02T08:50:33.390Z,962.0916
2023-05-02T08:51:33.481Z,962.1002
2023-05-02T08:52:34.016Z,962.1082
2023-05-02T08:53:34.749Z,962.1166
2023-05-02T08:54:35.250Z,962.1235
2023-05-02T08:55:35.915Z,962.1313
2023-05-02T08:56:36.837Z,962.1400
2023-05-02T08:57:37.366Z,962.1456
2023-05-02T08:58:38.020Z,962.1460
2023-05-02T08:59:39.189Z,962.1438
2023-05-02T09:00:39.736Z,962.1320
2023-05-02T09:01:40.886Z,962.1184
2023-05-02T09:02:41.629Z,962.1222
2023-05-02T09:03:42.385Z,962.1255
2023-05-02T09:04:43.418Z,962.1178
2023-05-02T09:05:43.375Z,962.1177
2023-05-02T09:06:44.172Z,962.1393
2023-05-02T09:07:44.817Z,962.1404
2023-05-02T09:08:45.266Z,962.1525
2023-05-02T09:09:45.840Z,962.1469
2023-05-02T09:10:46.480Z,962.1503
2023-05-02T09:11:46.979Z,962.1487
2023-05-02T09:12:47.826Z,962.1502
2023-05-02T09:13:48.353Z,962.1584
2023-05-02T09:14:49.065Z,962.1489
2023-05-02T09:15:49.843Z,962.1529
2023-05-02T09:16:50.631Z,962.1675
2023-05-02T09:17:51.684Z,962.1751
2023-05-02T09:18:52.381Z,962.1766
2023-05-02T09:19:52.977Z,962.1702
2023-05-02T09:20:53.634Z,962.1653
2023-05-02T09:21:54.588Z,962.1602
2023-05-02T09:22:55.200Z,962.1529
2023-05-02T09:23:55.750Z,962.1529
2023-05-02T09:24:56.271Z,962.1651
2023-05-02T09:25:57.628Z,962.1578
2023-05-02T09:26:58.941Z,962.1483
2023-05-02T09:27:59.714Z,962.1616
2023-05-02T09:29:00.481Z,962.1785
2023-05-02T09:30:01.391Z,962.1771
2023-05-02T09:31:02.439Z,962.1900
2023-05-02T09:32:03.750Z,962.1967
2023-05-02T09:33:04.867Z,962.1691
2023-05-02T09:34:05.309Z,962.1653
2023-05-02T09:35:06.225Z,962.1682
2023-05-02T09:36:06.741Z,962.1685
2023-05-02T09:37:07.391Z,962.1769
2023-05-02T09:38:08.093Z,962.1755
2023-05-02T09:39:09.015Z,962.1776
2023-05-02T09:40:09.610Z,962.1733
2023-05-02T09:41:10.418Z,962.1471
2023-05-02T09:42:10.995Z,962.1329
2023-05-02T09:43:11.687Z,962.1553
2023-05-02T09:44:12.276Z,962.1569
2023-05-02T09:45:13.481Z,962.1616
2023-05-02T09:46:14.335Z,962.1447
2023-05-02T09:47:15.536Z,962.1509
2023-05-02T09:48:16.429Z,962.1827
2023-05-02T09:49:17.314Z,962.1929
2023-05-02T09:50:18.118Z,962.2007
2023-05-02T09:51:18.847Z,962.2080
2023-05-02T09:52:19.646Z,962.2335
2023-05-02T09:53:20.155Z,962.2516
2023-05-02T09:54:20.798Z,962.2351
2023-05-02T09:55:21.489Z,962.2164
2023-05-02T09:56:23.298Z,962.2138
2023-05-02T09:57:22.866Z,962.2253
2023-05-02T09:58:23.352Z,962.2251
2023-05-02T09:59:24.042Z,962.2198
2023-05-02T10:00:24.768Z,962.2224
2023-05-02T10:01:25.459Z,962.2142
2023-05-02T10:02:25.965Z,962.2388
2023-05-02T10:03:26.973Z,962.2262
2023-05-02T10:04:28.260Z,962.2260
2023-05-02T10:05:30.176Z,962.2296
2023-05-02T10:06:29.653Z,962.2211
2023-05-02T10:07:30.756Z,962.2509
2023-05-02T10:08:31.706Z,962.2580
2023-05-02T10:09:31.768Z,962.2438
2023-05-02T10:10:32.355Z,962.2540
2023-05-02T10:11:33.368Z,962.2642
2023-05-02T10:12:33.992Z,962.2749
2023-05-02T10:13:34.760Z,962.2816
2023-05-02T10:14:37.191Z,962.2814
2023-05-02T10:15:37.807Z,962.2738
2023-05-02T10:16:39.002Z,962.2831
2023-05-02T10:17:39.847Z,962.2858
2023-05-02T10:18:40.983Z,962.2860
2023-05-02T10:19:41.755Z,962.2767
2023-05-02T10:20:42.421Z,962.2600
2023-05-02T10:21:42.948Z,962.2529
2023-05-02T10:22:43.742Z,962.2435
2023-05-02T10:23:44.374Z,962.2404
2023-05-02T10:24:45.218Z,962.2511
2023-05-02T10:25:45.895Z,962.2665
2023-05-02T10:26:46.455Z,962.2672
2023-05-02T10:27:47.171Z,962.2687
2023-05-02T10:28:48.090Z,962.2618
2023-05-02T10:29:48.794Z,962.2567
2023-05-02T10:30:49.546Z,962.2578
2023-05-02T10:31:50.134Z,962.2584
2023-05-02T10:32:51.159Z,962.2562
2023-05-02T10:33:52.168Z,962.2469
2023-05-02T10:34:52.678Z,962.2465
2023-05-02T10:35:53.326Z,962.2384
2023-05-02T10:36:54.011Z,962.2535
2023-05-02T10:39:04.223Z,962.2540
2023-05-02T10:40:04.851Z,962.2378
2023-05-02T10:41:05.393Z,962.2251
2023-05-02T10:42:06.068Z,962.2171
2023-05-02T10:43:06.707Z,962.2171
2023-05-02T10:44:07.271Z,962.2138
2023-05-02T10:45:07.994Z,962.2027
2023-05-02T10:46:08.557Z,962.1929
2023-05-02T10:47:09.011Z,962.1868
2023-05-02T10:48:09.970Z,962.1853
2023-05-02T10:49:10.492Z,962.1904
2023-05-02T10:50:11.340Z,962.1871
2023-05-02T10:52:11.720Z,962.1744
2023-05-02T10:53:12.339Z,962.1582
2023-05-02T10:54:12.735Z,962.1544
2023-05-02T10:55:13.482Z,962.1500
2023-05-02T10:56:14.205Z,962.1467
2023-05-02T10:57:14.716Z,962.1358
2023-05-02T10:58:15.662Z,962.1411
2023-05-02T10:59:16.472Z,962.1436
2023-05-02T11:00:16.934Z,962.1304
2023-05-02T11:01:17.922Z,962.1189
2023-05-02T11:02:18.752Z,962.1144
2023-05-02T11:03:19.088Z,962.1097
2023-05-02T11:04:19.846Z,962.0967
2023-05-02T11:05:21.120Z,962.0929
2023-05-02T11:06:21.934Z,962.0780
2023-05-02T11:07:23.251Z,962.0963
2023-05-02T11:08:24.325Z,962.0980
2023-05-02T11:09:24.859Z,962.0978
2023-05-02T11:10:25.637Z,962.1051
2023-05-02T11:11:26.048Z,962.0993
2023-05-02T11:12:26.749Z,962.0838
2023-05-02T11:13:27.149Z,962.0811
2023-05-02T11:14:27.760Z,962.0898
2023-05-02T11:15:28.475Z,962.0902
2023-05-02T11:16:29.153Z,962.0998
2023-05-02T11:17:30.108Z,962.1089
2023-05-02T11:18:31.073Z,962.1153
2023-05-02T11:19:31.752Z,962.1138
2023-05-02T11:20:32.519Z,962.1078
2023-05-02T11:21:33.030Z,962.0982
2023-05-02T11:22:33.708Z,962.0814
2023-05-02T11:23:34.393Z,962.0836
2023-05-02T11:24:34.957Z,962.0858
2023-05-02T11:25:35.538Z,962.0657
2023-05-02T11:26:36.148Z,962.0669
2023-05-02T11:27:36.588Z,962.0700
2023-05-02T11:28:37.398Z,962.0871
2023-05-02T11:29:37.886Z,962.0895
2023-05-02T11:30:38.450Z,962.0969
2023-05-02T11:31:39.638Z,962.0923
2023-05-02T11:32:39.660Z,962.0880
2023-05-02T11:33:40.731Z,962.0891
2023-05-02T11:34:41.420Z,962.0931
2023-05-02T11:35:41.637Z,962.0809
2023-05-02T11:36:42.320Z,962.0684
2023-05-02T11:37:42.833Z,962.0836
2023-05-02T11:38:43.406Z,962.0871
2023-05-02T11:39:44.260Z,962.0680
2023-05-02T11:40:44.769Z,962.0511
2023-05-02T11:41:45.464Z,962.0462
2023-05-02T11:42:46.088Z,962.0435
2023-05-02T11:43:46.163Z,962.0259
2023-05-02T11:44:46.813Z,962.0172
2023-05-02T11:45:47.322Z,962.0156
2023-05-02T11:46:48.053Z,962.0244
2023-05-02T11:47:48.845Z,962.0159
2023-05-02T11:48:49.622Z,961.9966
2023-05-02T11:49:50.589Z,961.9838
2023-05-02T11:50:52.612Z,961.9888
2023-05-02T11:51:53.015Z,962.0227
2023-05-02T11:52:53.658Z,962.0316
2023-05-02T11:53:54.409Z,962.0591
2023-05-02T11:54:54.876Z,962.0793
2023-05-02T11:55:56.152Z,962.0732
2023-05-02T11:56:56.600Z,962.0800
2023-05-02T11:57:57.195Z,962.0791
2023-05-02T11:58:57.300Z,962.0864
2023-05-02T11:59:58.129Z,962.0869
2023-05-02T12:00:59.116Z,962.0814
2023-05-02T12:01:59.737Z,962.0880
2023-05-02T12:03:00.751Z,962.0902
2023-05-02T12:04:01.620Z,962.0853
2023-05-02T12:05:03.217Z,962.0914
2023-05-02T12:06:03.306Z,962.0859
2023-05-02T12:07:04.004Z,962.0955
2023-05-02T12:08:05.064Z,962.0951
2023-05-02T12:09:05.496Z,962.0907
2023-05-02T12:10:06.173Z,962.0978
2023-05-02T12:11:06.605Z,962.1038
2023-05-02T12:12:07.259Z,962.1213
2023-05-02T12:13:08.906Z,962.1058
2023-05-02T12:14:08.104Z,962.1219
2023-05-02T12:15:09.395Z,962.1171
2023-05-02T12:16:10.453Z,962.1058
2023-05-02T12:17:11.253Z,962.0920
2023-05-02T12:18:12.520Z,962.0942
2023-05-02T12:19:12.853Z,962.0781
2023-05-02T12:20:13.437Z,962.1036
2023-05-02T12:21:14.137Z,962.1507
2023-05-02T12:22:14.759Z,962.1398
2023-05-02T12:23:15.410Z,962.1624
2023-05-02T12:24:16.229Z,962.1622
2023-05-02T12:25:16.775Z,962.1498
2023-05-02T12:26:16.814Z,962.1716
2023-05-02T12:27:16.995Z,962.2248
2023-05-02T12:28:17.617Z,962.2084
2023-05-02T12:29:18.430Z,962.1893
2023-05-02T12:30:19.143Z,962.2100
2023-05-02T12:31:20.008Z,962.2458
2023-05-02T12:32:20.919Z,962.2333
2023-05-02T12:33:21.740Z,962.2009
2023-05-02T12:34:22.563Z,962.2075
2023-05-02T12:35:23.318Z,962.1807
2023-05-02T12:36:23.265Z,962.1747
2023-05-02T12:37:23.969Z,962.1862
2023-05-02T12:38:25.134Z,962.1998
2023-05-02T12:39:25.930Z,962.1987
2023-05-02T12:40:26.429Z,962.2160
2023-05-02T12:41:27.132Z,962.2282
2023-05-02T12:42:27.931Z,962.2416
2023-05-02T12:43:28.418Z,962.2435